sensor_id;sensor_type;location;lat;lon;timestamp;pressure;altitude;pressure_sealevel;temperature;humidity
47260;BME280;32999;52.412;4.890;2023-01-28T06:30:36;103121.53;;;5.46;100.00
47260;BME280;32999;52.412;4.890;2023-01-28T11:33:43;103097.19;;;8.89;100.00
47260;BME280;32999;52.412;4.890;2023-01-28T11:38:48;103066.38;;;8.74;100.00
47260;BME280;32999;52.412;4.890;2023-01-28T11:43:50;103126.16;;;9.27;100.00
47260;BME280;32999;52.412;4.890;2023-01-28T11:49:01;103106.00;;;8.78;100.00
47260;BME280;32999;52.412;4.890;2023-01-28T11:54:21;103087.69;;;8.74;100.00
47260;BME280;32999;52.412;4.890;2023-01-28T11:59:41;103108.69;;;9.01;100.00
47260;BME280;32999;52.412;4.890;2023-01-28T12:04:57;103166.28;;;9.26;100.00
47260;BME280;32999;52.412;4.890;2023-01-28T12:10:10;103132.69;;;9.34;100.00
47260;BME280;32999;52.412;4.890;2023-01-28T12:15:55;103147.00;;;9.33;100.00
47260;BME280;32999;52.412;4.890;2023-01-28T12:21:22;102952.44;;;8.42;100.00
47260;BME280;32999;52.412;4.890;2023-01-28T12:26:35;103112.13;;;9.68;100.00
47260;BME280;32999;52.412;4.890;2023-01-28T12:31:54;103088.56;;;9.84;100.00
47260;BME280;32999;52.412;4.890;2023-01-28T12:37:06;102911.38;;;8.78;100.00
47260;BME280;32999;52.412;4.890;2023-01-28T12:42:21;102965.59;;;8.22;100.00
47260;BME280;32999;52.412;4.890;2023-01-28T12:47:32;102977.72;;;8.26;100.00
47260;BME280;32999;52.412;4.890;2023-01-28T12:52:41;102979.88;;;8.20;100.00
47260;BME280;32999;52.412;4.890;2023-01-28T12:57:44;102961.75;;;8.26;100.00
47260;BME280;32999;52.412;4.890;2023-01-28T13:02:52;103038.88;;;8.62;100.00
47260;BME280;32999;52.412;4.890;2023-01-28T13:14:02;102887.84;;;7.94;100.00
47260;BME280;32999;52.412;4.890;2023-01-28T13:19:10;102985.78;;;8.59;100.00
47260;BME280;32999;52.412;4.890;2023-01-28T13:24:30;102962.50;;;8.72;100.00
47260;BME280;32999;52.412;4.890;2023-01-28T13:29:34;103032.75;;;9.38;100.00
47260;BME280;32999;52.412;4.890;2023-01-28T13:34:37;102998.25;;;9.46;100.00
47260;BME280;32999;52.412;4.890;2023-01-28T13:39:46;102985.25;;;9.53;100.00
47260;BME280;32999;52.412;4.890;2023-01-28T13:44:50;103075.19;;;9.84;100.00
47260;BME280;32999;52.412;4.890;2023-01-28T13:49:57;103004.69;;;9.44;100.00
47260;BME280;32999;52.412;4.890;2023-01-28T13:55:03;102968.53;;;9.08;100.00
47260;BME280;32999;52.412;4.890;2023-01-28T14:00:13;103055.75;;;9.62;100.00
47260;BME280;32999;52.412;4.890;2023-01-28T14:05:52;103015.56;;;9.09;100.00
47260;BME280;32999;52.412;4.890;2023-01-28T14:11:10;103041.28;;;9.10;100.00
47260;BME280;32999;52.412;4.890;2023-01-28T14:16:29;103026.63;;;8.82;100.00
47260;BME280;32999;52.412;4.890;2023-01-28T14:21:35;103047.94;;;8.71;100.00
47260;BME280;32999;52.412;4.890;2023-01-28T14:26:45;102937.41;;;8.30;100.00
47260;BME280;32999;52.412;4.890;2023-01-28T14:31:49;103026.50;;;9.06;100.00
47260;BME280;32999;52.412;4.890;2023-01-28T14:36:53;103068.28;;;9.28;100.00
47260;BME280;32999;52.412;4.890;2023-01-28T14:41:58;103064.00;;;9.47;100.00
47260;BME280;32999;52.412;4.890;2023-01-28T14:52:46;103064.03;;;9.25;100.00
47260;BME280;32999;52.412;4.890;2023-01-28T14:57:55;103076.31;;;9.28;100.00
47260;BME280;32999;52.412;4.890;2023-01-28T15:03:07;103070.25;;;9.03;100.00
47260;BME280;32999;52.412;4.890;2023-01-28T15:08:18;103025.28;;;8.54;100.00
47260;BME280;32999;52.412;4.890;2023-01-28T15:13:24;103017.03;;;8.68;100.00
47260;BME280;32999;52.412;4.890;2023-01-28T15:18:31;102994.84;;;8.45;100.00
47260;BME280;32999;52.412;4.890;2023-01-28T15:23:40;103060.44;;;8.81;100.00
47260;BME280;32999;52.412;4.890;2023-01-28T15:28:45;103072.44;;;8.87;100.00
47260;BME280;32999;52.412;4.890;2023-01-28T15:33:57;103060.66;;;8.56;100.00
47260;BME280;32999;52.412;4.890;2023-01-28T15:38:59;103094.88;;;8.84;100.00
47260;BME280;32999;52.412;4.890;2023-01-28T15:44:01;103094.00;;;8.73;100.00
47260;BME280;32999;52.412;4.890;2023-01-28T15:49:13;103097.75;;;8.70;100.00
47260;BME280;32999;52.412;4.890;2023-01-28T15:54:16;103104.28;;;8.66;100.00
47260;BME280;32999;52.412;4.890;2023-01-28T15:59:23;103081.50;;;8.62;100.00
47260;BME280;32999;52.412;4.890;2023-01-28T16:04:34;103088.28;;;8.66;100.00
47260;BME280;32999;52.412;4.890;2023-01-28T16:09:36;103084.41;;;8.59;100.00
47260;BME280;32999;52.412;4.890;2023-01-28T16:14:43;103090.91;;;8.44;100.00
47260;BME280;32999;52.412;4.890;2023-01-28T16:20:04;103005.09;;;7.81;100.00
47260;BME280;32999;52.412;4.890;2023-01-28T16:25:26;103085.00;;;8.16;100.00
47260;BME280;32999;52.412;4.890;2023-01-28T20:17:45;103124.06;;;7.19;100.00
47260;BME280;32999;52.412;4.890;2023-01-28T20:35:07;103100.91;;;7.08;100.00
47260;BME280;32999;52.412;4.890;2023-01-28T21:59:24;103097.25;;;7.22;100.00
47260;BME280;32999;52.412;4.890;2023-01-28T22:05:08;103089.00;;;7.14;100.00
47260;BME280;32999;52.412;4.890;2023-01-28T22:10:33;103077.63;;;7.12;100.00
47260;BME280;32999;52.412;4.890;2023-01-28T22:15:41;103038.44;;;6.65;100.00
47260;BME280;32999;52.412;4.890;2023-01-28T22:20:43;103073.59;;;6.94;100.00
47260;BME280;32999;52.412;4.890;2023-01-28T22:25:45;103094.22;;;7.03;100.00
47260;BME280;32999;52.412;4.890;2023-01-28T22:31:12;103058.47;;;6.94;100.00
47260;BME280;32999;52.412;4.890;2023-01-28T22:42:41;103057.22;;;7.00;100.00
47260;BME280;32999;52.412;4.890;2023-01-28T23:14:58;103044.59;;;6.91;100.00
